Jemez Springs, Valles Caldera, New Mexico Weather observations

Data are for 10 minute period ending at time listed.
 Day   Time   Solar   Ave.   Ave.  Ave.  Vector  Max.   Baro.   Total    
  of    of     Rad.   Air    Rel.  Wind   Wind   Wind  Press.  Precip.   
Year   Day            Temp.  Hum.  Speed  Dir.   Gust                    
2017   (MST)  Kw/m2    F      %     mph   deg.    mph    mb.     in.     
-------------------------------------------------------------------------
 115   17:30   0.07   43.0    78    5.1   348    11.3   797.4    0.01 
 115   17:40   0.03   42.5    75    5.0     7     9.0   797.2    0.00 
 115   17:50   0.02   41.9    77    4.1   343     7.8   797.1    0.00 
 115   18:00   0.02   41.3    79    3.3   342     6.6   797.0    0.00 
 115   18:10   0.02   40.9    81    3.6   326     7.2   797.1    0.00 
 115   18:20   0.01   40.6    82    3.4    13     7.2   797.8    0.00 
 115   18:30   0.01   40.9    80    4.3   320    15.5   798.2    0.00 
 115   18:40   0.01   43.4    64    5.9    28    14.3   798.2    0.00 
 115   18:50   0.01   42.8    72    3.2   328     6.0   798.1    0.00 
 115   19:00   0.00   41.7    76    3.0   346     7.2   798.4    0.00 
 115   19:10   0.00   40.6    81    2.7    17     3.6   798.5    0.00 
 115   19:20   0.00   40.0    84    3.6    24     7.2   798.4    0.00 
 115   19:30   0.00   41.0    75    4.0   358    11.3   798.4    0.00 
 115   19:40   0.00   40.7    76    3.5   319     6.0   798.5    0.00 
 115   19:50   0.00   39.7    81    1.6    42     3.6   798.9    0.00 
 115   20:00   0.00   39.2    82    3.0   129     5.4   798.9    0.00 
 115   20:10   0.00   38.9    83    2.5   167     4.2   799.0    0.00 
 115   20:20   0.00   38.2    84    2.6   180     6.6   799.0    0.00 
 115   20:30   0.00   37.9    85    1.5    10     3.6   799.1    0.00 
 115   20:40   0.00   36.7    89    0.9    17     2.4   799.1    0.00 
 115   20:50   0.00   36.2    92    2.9    32     5.4   799.3    0.00 
 115   21:00   0.00   36.0    92    3.0    10     4.8   799.5    0.00 
 115   21:10   0.00   35.9    92    3.2    16     5.1   799.6    0.00 
 115   21:20   0.00   35.5    92    3.2    36     5.4   799.7    0.00 
 115   21:30   0.00   35.1    92    1.6   174     3.6   799.8    0.00 
 115   21:40   0.00   34.8    93    2.8   192     4.8   799.9    0.00 
 115   21:50   0.00   35.7    89    2.3   277     4.8   799.9    0.00 
 115   22:00   0.00   36.2    86    2.8   351    10.2   800.0    0.00 
 115   22:10   0.00   38.1    77    3.6   348     7.2   800.0    0.00 
 115   22:20   0.00   38.2    77    2.2    14     4.2   800.1    0.00 
 115   22:30   0.00   37.5    80    2.9   346     5.4   800.0    0.00 
 115   22:40   0.00   37.9    76    3.0   316     8.4   800.0    0.00 
 115   22:50   0.00   38.9    71    4.1    27    10.8   800.1    0.00 
 115   23:00   0.00   40.7    65    6.4     4    14.9   800.0    0.00 
 115   23:10   0.00   40.2    66    2.8    49     9.6   800.0    0.00 
 115   23:20   0.00   39.8    66    4.0    23    11.9   800.0    0.00 
 115   23:30   0.00   40.9    62    6.9    22    13.7   799.9    0.00 
 115   23:40   0.00   40.5    63    3.7   101    11.3   799.8    0.00 
 115   23:50   0.00   40.1    64    6.6    54    12.5   800.0    0.00 
 116    0:00   0.00   40.5    62    6.7    15    13.7   800.3    0.00 
 116    0:10   0.00   40.3    62    6.4    16    13.7   800.4    0.00 
 116    0:20   0.00   40.0    63    6.5    20    16.1   800.4    0.00 
 116    0:30   0.00   39.8    63    7.3    11    15.5   800.4    0.00 
 116    0:40   0.00   39.9    62    9.2    38    24.5   800.5    0.00 
 116    0:50   0.00   39.7    63    6.9    36    14.3   800.5    0.00 
 116    1:00   0.00   38.8    66    3.4    34     7.8   800.7    0.00 
 116    1:10   0.00   37.5    71    1.9   346     5.4   800.8    0.00 
 116    1:20   0.00   35.9    77    0.3     9     3.0   800.9    0.00 
 116    1:30   0.00   34.5    82    1.4    23     3.0   800.9    0.00 
 116    1:40   0.00   33.4    86    1.4    30     3.0   800.8    0.00 
 116    1:50   0.00   32.8    88    1.4   234     3.0   800.7    0.00 
 116    2:00   0.00   32.5    89    0.4   245     3.0   800.7    0.00 
 116    2:10   0.00   31.9    90    1.7    22     4.8   800.8    0.00 
 116    2:20   0.00   31.6    92    1.3   294     4.8   800.8    0.00 
 116    2:30   0.00   31.8    92    2.4    39     4.8   800.8    0.00 
 116    2:40   0.00   32.6    88    1.6   354     4.2   800.8    0.00 
 116    2:50   0.00   32.3    88    0.5   333     2.4   801.0    0.00 
 116    3:00   0.00   32.1    88    2.3    42     9.0   801.0    0.00 
 116    3:10   0.00   35.1    75    4.7    45    11.3   801.1    0.00 
 116    3:20   0.00   37.3    66    5.1    38    13.1   801.2    0.00 
 116    3:30   0.00   38.1    62    5.9    35    14.3   801.3    0.00 
 116    3:40   0.00   38.1    62    6.3    35    13.1   801.4    0.00 
 116    3:50   0.00   38.3    60    8.1    40    19.7   801.5    0.00 
 116    4:00   0.00   38.3    60    7.8    64    17.9   801.6    0.00 
 116    4:10   0.00   38.3    60    6.1    30    13.7   801.8    0.00 
 116    4:20   0.00   38.1    60    7.6    31    14.9   801.9    0.00 
 116    4:30   0.00   37.8    61    7.1    42    14.9   802.0    0.00 
 116    4:40   0.00   37.9    60    8.3    52    13.7   802.1    0.00 
 116    4:50   0.00   37.9    60    7.7    62    13.1   802.2    0.00 
 116    5:00   0.00   37.9    59    5.8    66     9.0   802.2    0.00 
 116    5:10   0.00   37.5    60    3.7    43     9.0   802.2    0.00 
 116    5:20   0.00   35.6    68    2.4   353     4.8   802.3    0.00 
 116    5:30   0.01   33.8    75    3.1     2     4.8   802.4    0.00 
 116    5:40   0.01   33.4    77    3.2     3     5.4   802.5    0.00 
 116    5:50   0.01   32.7    79    3.9     7     6.0   802.6    0.00 
 116    6:00   0.01   32.9    77    3.4   354     7.2   802.8    0.00 
 116    6:10   0.02   33.6    74    4.6     0     7.2   802.9    0.00 
 116    6:20   0.02   33.8    73    4.6    11     8.4   802.9    0.00 
 116    6:30   0.02   33.7    73    4.1    13     8.4   802.9    0.00 
 116    6:40   0.12   33.6    74    3.9    13     6.0   802.9    0.00 
 116    6:50   0.26   35.6    70    4.8    16     7.2   802.9    0.00 
 116    7:00   0.29   37.7    66    4.6    24     6.6   802.9    0.00 
 116    7:10   0.33   39.9    62    3.2    30     5.4   802.9    0.00 
 116    7:20   0.36   41.6    59    2.9    42     4.8   803.0    0.00 
 116    7:30   0.40   43.9    52    2.9    48     4.8   802.8    0.00 
 116    7:40   0.44   45.6    47    2.7    25     4.8   802.8    0.00 
 116    7:50   0.47   46.5    42    5.1    70    11.3   802.7    0.00 
 116    8:00   0.51   48.0    42    3.7    41     6.6   802.7    0.00 
 116    8:10   0.54   48.5    40    4.6    41     7.8   802.9    0.00 
 116    8:20   0.57   48.4    41    6.9    30    13.7   803.0    0.00 
 116    8:30   0.60   49.1    41    6.1    35    13.7   803.1    0.00 
 116    8:40   0.64   49.6    38    5.8    32    11.3   803.1    0.00 
 116    8:50   0.67   49.8    37    7.2    36    12.5   803.2    0.00 
 116    9:00   0.70   50.1    36    8.6    60    15.5   803.2    0.00 
 116    9:10   0.73   50.5    35    6.7    52    17.3   803.2    0.00 
 116    9:20   0.76   51.0    34    8.2    26    19.1   803.7    0.00 
 116    9:30   0.78   51.1    34    8.3    28    20.9   803.8    0.00 
 116    9:40   0.81   50.8    34    8.6    22    17.3   803.7    0.01 
 116    9:50   0.84   50.7    36   10.2    38    20.3   803.7    0.00 
 116   10:00   0.69   50.6    37    9.1    16    19.7   803.7    0.01 
 116   10:10   0.82   51.5    36    8.1     2    18.5   803.6    0.00 
 116   10:20   0.92   52.2    36    5.3   143    11.3   803.3    0.00 
 116   10:30   0.83   52.5    36    6.0    60    11.3   803.3    0.00 
 116   10:40   0.73   51.6    35    5.8   100    12.5   803.3    0.00 
 116   10:50   0.63   52.6    35    8.4    57    14.9   803.2    0.00 
 116   11:00   0.54   52.1    35    5.1    68    14.0   803.1    0.01 
 116   11:10   0.60   52.8    34    4.0   320    15.5   803.2    0.00 
 116   11:20   0.78   53.0    35    6.8   185    15.5   803.1    0.01 
 116   11:30   0.62   53.4    35    6.5   140    13.1   803.0    0.00 
 116   11:40   0.45   52.6    36    8.2     6    17.9   802.8    0.00 
 116   11:50   0.52   52.3    34    6.7   115    14.3   802.8    0.00 
 116   12:00   0.91   54.3    36    5.3    84    12.5   802.6    0.00 
 116   12:10   0.86   55.4    34    7.3    61    14.9   802.5    0.00 
 116   12:20   1.15   56.1    32    8.7   199    17.9   802.6    0.01 
 116   12:30   0.97   55.6    33    8.2    33    16.1   802.6    0.00 
 116   12:40   0.83   55.1    29    8.6   270    17.3   802.6    0.00 
 116   12:50   0.81   55.6    28    6.3   314    17.3   802.7    0.00 
 116   13:00   0.73   56.4    28    7.6    70    19.1   802.5    0.00 
 116   13:10   0.91   55.6    28    8.3   165    22.1   802.4    0.01 
 116   13:20   0.86   55.9    27    5.8    61    13.7   802.5    0.00 
 116   13:30   0.73   55.8    26    5.9    70    14.3   802.4    0.00 
 116   13:40   0.65   56.4    26    5.1   120    13.1   802.3    0.00 
 116   13:50   0.69   56.4    24    6.2    34    12.5   802.1    0.00 
 116   14:00   0.71   57.5    22    4.9   189    12.5   802.2    0.00 
 116   14:10   0.61   55.8    22    9.1   163    17.9   802.0    0.01 
 116   14:20   0.52   56.6    20    7.7   202    16.1   802.0    0.00 
 116   14:30   0.34   55.9    18    7.7   196    18.5   802.2    0.00 
 116   14:40   0.32   55.3    19    6.2    61    10.8   802.1    0.00 
 116   14:50   0.45   56.1    21    5.5    93    11.9   801.8    0.00 
 116   15:00   0.68   57.0    20    8.3    43    21.5   801.7    0.00 
 116   15:10   0.79   57.4    20   11.2    59    18.5   801.5    0.00 
 116   15:20   0.73   58.4    19    4.8   139    10.2   801.4    0.00 
 116   15:30   0.66   58.4    20    7.1    49    20.3   801.1    0.00 
 116   15:40   0.66   58.3    19    7.4    22    17.3   801.0    0.00 
 116   15:50   0.67   58.2    19    5.4    46    10.8   800.9    0.00 
 116   16:00   0.69   58.5    19    7.1    87    13.1   800.8    0.00 
 116   16:10   0.61   58.9    19    6.4    18    14.9   800.8    0.00 
 116   16:20   0.56   58.6    20    5.3    41    14.3   800.8    0.00 
 116   16:30   0.34   57.7    21    5.2   163    12.5   800.7    0.00 
 116   16:40   0.28   57.4    22    4.7    85     8.7   800.7    0.01 
 116   16:50   0.26   56.9    23    4.7   138    11.3   800.7    0.00 
 116   17:00   0.16   56.6    23    1.7   356     4.8   800.6    0.00 
 116   17:10   0.12   56.2    26    3.0   172     7.8   800.7    0.00 
 116   17:20   0.10   55.5    25    5.3    56     9.6   800.5    0.00 

Return to Jemez Springs, Valles Caldera graphs page.


Western Regional Climate Center,wrcc@dri.edu